Time;durP1;ratioP1;P1;durP2;ratioP2;P2;SDS_P1;SDS_P2;PMS_P1;PMS_P2;Temp;Humidity;BMP_temperature;BMP_pressure;BME280_temperature;BME280_humidity;BME280_pressure;Samples;Min_cycle;Max_cycle;Signal;HPM_P1;HPM_P2
2022/04/06 00:01:52;;;;;;;10.77;7.85;;;;;;;11.09;58.85;100768.97;5029268;28;20057;-85
2022/04/06 00:04:18;;;;;;;7.90;7.00;;;;;;;11.12;58.89;100775.81;5028002;28;20042;-85
2022/04/06 00:06:45;;;;;;;8.02;7.30;;;;;;;11.40;59.20;100813.22;5012558;28;20107;-85
2022/04/06 00:09:18;;;;;;;8.10;7.32;;;;;;;10.17;59.02;100614.19;5010785;28;20330;-85
2022/04/06 00:11:45;;;;;;;9.88;7.10;;;;;;;11.28;59.18;100791.22;5009407;28;20077;-85
2022/04/06 00:14:12;;;;;;;9.15;7.88;;;;;;;11.22;59.56;100789.13;5026319;28;20077;-85
2022/04/06 00:16:39;;;;;;;8.02;6.65;;;;;;;11.23;58.94;100786.31;5027110;28;20046;-86
2022/04/06 00:19:05;;;;;;;6.97;6.35;;;;;;;11.08;57.70;100761.94;5009992;28;20277;-85
2022/04/06 00:21:32;;;;;;;7.40;6.70;;;;;;;11.38;58.44;100809.84;5029379;28;20052;-85
2022/04/06 00:23:59;;;;;;;8.88;6.30;;;;;;;11.12;58.39;100776.66;5030143;28;20060;-84
2022/04/06 00:26:26;;;;;;;7.85;6.07;;;;;;;10.67;57.06;100705.34;5013975;28;20139;-85
2022/04/06 00:28:53;;;;;;;6.55;5.95;;;;;;;11.30;57.53;100807.88;5031842;28;20041;-85
2022/04/06 00:31:19;;;;;;;8.13;5.50;;;;;;;9.70;56.84;100548.38;5030373;28;20049;-84
2022/04/06 00:33:47;;;;;;;7.85;6.10;;;;;;;10.44;57.41;100672.88;5013556;28;20049;-85
2022/04/06 00:36:16;;;;;;;6.63;5.90;;;;;;;10.15;58.18;100618.81;5013467;28;20424;-86
2022/04/06 00:38:43;;;;;;;6.45;5.85;;;;;;;10.16;57.59;100626.63;5031247;28;20139;-85
2022/04/06 00:41:10;;;;;;;7.07;5.60;;;;;;;10.15;56.65;100629.44;5030809;28;20495;-85
2022/04/06 00:43:37;;;;;;;5.55;5.05;;;;;;;9.62;55.74;100541.09;5031919;28;20224;-85
2022/04/06 00:46:03;;;;;;;5.65;5.15;;;;;;;10.67;57.13;100720.44;5048765;28;20119;-84
2022/04/06 00:48:30;;;;;;;5.90;5.35;;;;;;;11.17;56.75;100807.31;5035876;28;20057;-86
2022/04/06 00:50:57;;;;;;;5.93;5.32;;;;;;;11.22;56.91;100807.75;5036809;28;20057;-84
2022/04/06 00:53:24;;;;;;;6.68;5.65;;;;;;;10.99;57.20;100767.25;5040176;28;20038;-86
2022/04/06 00:55:52;;;;;;;7.35;5.22;;;;;;;11.08;57.50;100793.00;5037141;28;20053;-85
2022/04/06 00:58:23;;;;;;;6.00;5.38;;;;;;;10.86;57.94;100772.78;5033832;28;20041;-84
2022/04/06 01:00:50;;;;;;;5.63;4.70;;;;;;;9.89;57.77;100619.25;5031615;28;20042;-85
2022/04/06 01:03:16;;;;;;;6.18;5.63;;;;;;;9.86;58.13;100605.41;5028819;28;20139;-85
2022/04/06 01:05:43;;;;;;;7.53;6.70;;;;;;;9.94;58.12;100627.63;5029999;28;20072;-85
2022/04/06 01:08:11;;;;;;;8.00;6.15;;;;;;;10.71;58.33;100751.06;5012486;28;20076;-85
2022/04/06 01:10:38;;;;;;;7.28;6.55;;;;;;;10.78;58.67;100754.88;5029297;28;20042;-85
2022/04/06 01:13:06;;;;;;;10.10;6.50;;;;;;;10.40;58.96;100700.63;5011709;28;20137;-85
2022/04/06 01:15:33;;;;;;;9.50;7.30;;;;;;;10.08;58.89;100654.81;5046031;28;20369;-85
2022/04/06 01:18:00;;;;;;;11.55;8.45;;;;;;;10.39;59.06;100690.16;5032081;28;20114;-86
2022/04/06 01:20:26;;;;;;;15.45;9.60;;;;;;;9.75;59.38;100571.84;5049496;28;20048;-85
2022/04/06 01:22:53;;;;;;;11.57;9.25;;;;;;;9.80;59.75;100581.09;5031816;28;20148;-85
2022/04/06 01:25:20;;;;;;;11.10;10.00;;;;;;;10.38;59.02;100678.69;5048437;28;20419;-86
2022/04/06 01:27:48;;;;;;;10.93;9.82;;;;;;;11.07;59.28;100794.00;5031798;28;20495;-84
2022/04/06 01:30:14;;;;;;;11.98;9.73;;;;;;;11.16;59.04;100795.81;5031910;28;20049;-85
2022/04/06 01:32:41;;;;;;;16.60;9.88;;;;;;;9.45;59.56;100525.81;5030427;28;20045;-85
2022/04/06 01:35:08;;;;;;;12.05;10.40;;;;;;;9.77;60.31;100591.13;5031397;28;20126;-84
2022/04/06 01:37:35;;;;;;;13.10;10.80;;;;;;;9.15;60.65;100493.00;5031525;28;20130;-85
2022/04/06 01:40:04;;;;;;;11.75;10.65;;;;;;;10.36;60.71;100706.34;5031002;28;20463;-85
2022/04/06 01:42:31;;;;;;;12.23;10.93;;;;;;;10.41;60.33;100702.34;5030971;28;20041;-85
2022/04/06 01:44:58;;;;;;;11.75;10.52;;;;;;;10.79;60.82;100775.13;5047873;28;20064;-85
2022/04/06 01:47:25;;;;;;;11.85;10.52;;;;;;;10.73;61.17;100767.72;5031573;28;20055;-85
2022/04/06 01:52:37;;;;;;;18.67;11.73;;;;;;;10.23;60.67;100680.84;5049123;28;20095;-85
2022/04/06 01:55:09;;;;;;;13.50;11.75;;;;;;;10.12;61.11;100677.41;5030687;28;20491;-86
2022/04/06 01:57:36;;;;;;;15.55;12.63;;;;;;;9.79;61.31;100650.16;5064098;28;20144;-85
2022/04/06 02:00:09;;;;;;;15.38;13.98;;;;;;;10.02;61.25;100686.19;5064696;28;20052;-84
2022/04/06 02:02:37;;;;;;;16.55;14.93;;;;;;;10.29;61.41;100752.94;5032025;28;20511;-84
2022/04/06 02:05:05;;;;;;;15.38;13.88;;;;;;;10.34;62.06;100783.44;5063897;28;20486;-85
2022/04/06 02:07:31;;;;;;;16.92;14.90;;;;;;;10.14;62.25;100755.06;5048729;28;20136;-85
2022/04/06 02:09:59;;;;;;;17.90;14.27;;;;;;;10.28;61.64;100778.66;5030883;28;20041;-85
2022/04/06 02:12:27;;;;;;;17.30;15.23;;;;;;;10.23;61.80;100788.78;5030543;28;20127;-86
2022/04/06 02:14:53;;;;;;;20.92;16.75;;;;;;;9.99;62.83;100779.25;5031003;28;20056;-84
2022/04/06 02:17:20;;;;;;;17.65;16.08;;;;;;;9.92;63.22;100771.94;5014749;28;20049;-85
2022/04/06 02:19:47;;;;;;;17.63;16.02;;;;;;;9.76;62.82;100752.03;5010819;28;20307;-84
2022/04/06 02:22:13;;;;;;;18.23;16.38;;;;;;;9.68;63.04;100735.06;5028304;28;20053;-85
2022/04/06 02:24:40;;;;;;;19.00;17.05;;;;;;;9.72;62.87;100755.03;5010051;28;20132;-85
2022/04/06 02:27:07;;;;;;;17.48;15.68;;;;;;;9.57;63.43;100747.38;5010867;28;20136;-86
2022/04/06 02:29:36;;;;;;;18.55;16.67;;;;;;;9.80;63.16;100764.03;5010752;28;20281;-86
2022/04/06 02:32:04;;;;;;;18.95;17.20;;;;;;;9.25;63.47;100682.94;5027999;28;20057;-86
2022/04/06 02:34:32;;;;;;;19.75;17.77;;;;;;;9.65;63.65;100752.06;5010946;28;20053;-84
2022/04/06 02:36:59;;;;;;;20.60;18.48;;;;;;;9.62;63.58;100771.69;5028453;28;20264;-85
2022/04/06 02:39:26;;;;;;;18.92;17.08;;;;;;;9.16;63.50;100695.97;5028456;28;20049;-85
2022/04/06 02:41:53;;;;;;;25.05;18.33;;;;;;;9.47;63.87;100735.88;5043363;28;20470;-85
2022/04/06 02:44:20;;;;;;;19.35;17.33;;;;;;;9.58;63.64;100759.66;5027929;28;20146;-85
2022/04/06 02:46:50;;;;;;;18.85;17.05;;;;;;;9.36;63.79;100718.19;5027633;28;20055;-85
2022/04/06 02:49:18;;;;;;;19.67;17.65;;;;;;;8.46;63.54;100570.16;5028124;28;20048;-85
2022/04/06 02:51:45;;;;;;;18.98;17.05;;;;;;;9.77;63.65;100785.50;5010103;28;20127;-85
2022/04/06 02:54:12;;;;;;;19.33;17.35;;;;;;;8.60;64.14;100595.53;5043456;28;20316;-85
2022/04/06 02:56:39;;;;;;;19.05;17.15;;;;;;;8.19;64.06;100544.09;5011373;28;20049;-85
2022/04/06 02:59:08;;;;;;;18.88;16.88;;;;;;;9.66;64.80;100776.75;5044791;28;20107;-84
2022/04/06 03:01:35;;;;;;;20.05;17.95;;;;;;;9.37;64.28;100729.66;5031576;28;20045;-85
2022/04/06 03:04:02;;;;;;;19.52;17.63;;;;;;;8.93;64.33;100651.97;5018889;28;20041;-86
2022/04/06 03:06:29;;;;;;;19.73;17.83;;;;;;;9.00;63.72;100642.56;5034045;28;20053;-86
2022/04/06 03:08:56;;;;;;;19.20;17.30;;;;;;;9.35;63.41;100695.31;5017043;28;20053;-84
2022/04/06 03:11:22;;;;;;;19.25;17.40;;;;;;;9.66;64.19;100755.53;5028198;28;20045;-84
2022/04/06 03:13:50;;;;;;;19.17;17.15;;;;;;;9.09;64.48;100659.53;5027303;28;20049;-85
2022/04/06 03:16:17;;;;;;;19.25;17.45;;;;;;;8.93;64.00;100636.97;5017327;28;20188;-85
2022/04/06 03:18:44;;;;;;;19.10;17.23;;;;;;;9.82;64.18;100777.16;5030143;28;20331;-84
2022/04/06 03:21:11;;;;;;;20.15;18.13;;;;;;;8.52;64.11;100564.41;5031319;28;20114;-85
2022/04/06 03:23:37;;;;;;;19.92;17.92;;;;;;;8.53;63.89;100576.66;5032135;28;20555;-84
2022/04/06 03:26:04;;;;;;;19.55;17.85;;;;;;;9.16;64.64;100674.78;5029761;28;20068;-83
2022/04/06 03:28:31;;;;;;;19.15;17.48;;;;;;;9.62;65.25;100771.69;5029983;28;20064;-86
2022/04/06 03:30:58;;;;;;;19.58;17.58;;;;;;;9.55;65.40;100781.13;5029325;28;20052;-85
2022/04/06 03:33:24;;;;;;;20.13;18.02;;;;;;;7.81;65.76;100500.38;5028809;28;20525;-85
2022/04/06 03:35:52;;;;;;;19.40;17.70;;;;;;;8.15;65.71;100582.31;5045731;28;20057;-84
2022/04/06 03:38:19;;;;;;;19.70;17.90;;;;;;;8.24;66.34;100591.34;5029402;28;20099;-84
2022/04/06 03:40:47;;;;;;;19.80;18.10;;;;;;;8.39;66.71;100610.44;5029630;28;20048;-85
2022/04/06 03:43:14;;;;;;;19.60;17.80;;;;;;;8.42;66.30;100615.50;5029431;28;20253;-85
2022/04/06 03:45:41;;;;;;;19.80;17.88;;;;;;;8.33;66.29;100599.38;5029312;28;20056;-85
2022/04/06 03:48:08;;;;;;;20.65;18.42;;;;;;;9.50;66.07;100783.31;5029581;28;20304;-83
2022/04/06 03:50:35;;;;;;;20.30;18.30;;;;;;;8.39;66.15;100589.28;5029350;28;20146;-85
2022/04/06 03:53:02;;;;;;;19.98;18.13;;;;;;;7.75;66.31;100485.03;5062625;28;20107;-84
2022/04/06 03:55:31;;;;;;;20.00;18.25;;;;;;;7.64;66.21;100471.81;5029811;28;20265;-85
2022/04/06 03:57:59;;;;;;;19.60;17.77;;;;;;;8.98;65.94;100695.69;5050600;28;20351;-85
2022/04/06 04:00:29;;;;;;;20.90;18.85;;;;;;;9.30;65.98;100757.59;5052387;28;20045;-85
2022/04/06 04:02:56;;;;;;;20.98;18.83;;;;;;;9.45;66.42;100769.59;5034155;28;20049;-86
2022/04/06 04:05:23;;;;;;;20.15;18.23;;;;;;;9.31;65.88;100752.16;5037048;28;20044;-84
2022/04/06 04:07:50;;;;;;;20.63;18.52;;;;;;;9.36;66.13;100763.22;5070137;28;20312;-84
2022/04/06 04:10:19;;;;;;;20.20;18.33;;;;;;;9.44;66.16;100773.19;5035296;28;20415;-85
2022/04/06 04:12:46;;;;;;;20.25;18.20;;;;;;;9.11;65.93;100723.81;5033624;28;20049;-83
2022/04/06 04:15:14;;;;;;;23.20;18.83;;;;;;;8.76;65.87;100662.16;5066442;28;20135;-84
2022/04/06 04:17:40;;;;;;;21.10;18.83;;;;;;;7.55;66.01;100473.41;5013456;28;20510;-84
2022/04/06 04:20:08;;;;;;;19.63;17.75;;;;;;;8.58;66.70;100658.31;5031044;28;20042;-84
2022/04/06 04:22:35;;;;;;;20.02;18.08;;;;;;;7.56;66.32;100490.06;5013520;28;20489;-85
2022/04/06 04:25:02;;;;;;;20.52;18.33;;;;;;;9.06;66.75;100750.66;5046569;28;20094;-85
2022/04/06 04:27:29;;;;;;;20.45;18.30;;;;;;;8.31;66.80;100625.13;5012902;28;20072;-85
2022/04/06 04:29:57;;;;;;;19.52;17.63;;;;;;;7.49;67.03;100501.09;5012685;28;20088;-84
2022/04/06 04:32:24;;;;;;;19.90;18.10;;;;;;;8.78;66.86;100710.47;5012364;28;20311;-84
2022/04/06 04:34:51;;;;;;;19.83;17.85;;;;;;;8.60;66.43;100674.91;5031103;28;20486;-85
2022/04/06 04:37:17;;;;;;;20.88;18.73;;;;;;;7.38;66.38;100484.41;5031099;28;20073;-85
2022/04/06 04:39:44;;;;;;;19.48;17.42;;;;;;;7.75;66.42;100537.06;5013050;28;20069;-85
2022/04/06 04:42:10;;;;;;;18.58;16.83;;;;;;;8.65;66.70;100683.31;5030558;28;20109;-84
2022/04/06 04:44:37;;;;;;;19.50;16.98;;;;;;;9.22;66.48;100775.91;5012004;28;20124;-85
2022/04/06 04:47:04;;;;;;;19.42;17.48;;;;;;;9.09;66.29;100758.34;5045629;28;20479;-84
2022/04/06 04:50:03;;;;;;;18.65;16.75;;;;;;;9.19;66.12;100771.69;5012719;28;20543;-85
2022/04/06 04:52:30;;;;;;;19.63;17.63;;;;;;;8.53;65.88;100686.94;5008624;28;20052;-85
2022/04/06 04:54:56;;;;;;;20.83;18.15;;;;;;;9.25;65.75;100778.31;5012405;28;20415;-85
2022/04/06 04:57:23;;;;;;;18.30;16.50;;;;;;;9.22;65.60;100778.56;5012567;28;20069;-84
2022/04/06 04:59:53;;;;;;;20.00;18.00;;;;;;;8.65;65.72;100675.38;5012714;28;20367;-83
2022/04/06 05:02:19;;;;;;;19.00;17.02;;;;;;;8.91;65.33;100720.13;5012281;28;20115;-85
2022/04/06 05:04:46;;;;;;;19.35;17.35;;;;;;;9.21;65.28;100753.88;5013002;28;20442;-85
2022/04/06 05:07:12;;;;;;;20.33;18.17;;;;;;;9.47;65.14;100788.03;5015341;28;20557;-85
2022/04/06 05:09:39;;;;;;;20.08;18.17;;;;;;;9.49;65.62;100786.94;5017261;28;20057;-85
2022/04/06 05:12:08;;;;;;;18.67;16.58;;;;;;;9.31;65.01;100746.88;5047190;28;20048;-85
2022/04/06 05:14:34;;;;;;;19.63;17.48;;;;;;;9.45;64.59;100774.06;5030079;28;20073;-85
2022/04/06 05:17:01;;;;;;;19.10;17.10;;;;;;;9.35;64.86;100758.06;5011259;28;20145;-84
2022/04/06 05:19:28;;;;;;;18.95;17.05;;;;;;;9.53;64.17;100764.50;5011962;28;20053;-85
2022/04/06 05:21:54;;;;;;;18.42;16.73;;;;;;;9.70;63.71;100788.78;5029502;28;20581;-84
2022/04/06 05:24:21;;;;;;;20.60;18.48;;;;;;;9.71;63.19;100785.16;5011924;28;20148;-84
2022/04/06 05:26:47;;;;;;;17.58;15.75;;;;;;;9.68;63.36;100780.13;5011237;28;20049;-84
2022/04/06 05:29:14;;;;;;;23.92;17.05;;;;;;;9.55;64.61;100786.44;5044516;28;20056;-84
2022/04/06 05:31:41;;;;;;;22.40;17.77;;;;;;;9.49;64.67;100781.66;5011398;28;20084;-84
2022/04/06 05:34:07;;;;;;;17.73;15.93;;;;;;;9.32;64.47;100761.81;5011595;28;20050;-84
2022/04/06 05:36:34;;;;;;;18.15;15.77;;;;;;;9.15;64.18;100741.97;5029688;28;20073;-85
2022/04/06 05:39:01;;;;;;;17.50;15.82;;;;;;;9.57;64.43;100803.06;5028981;28;20417;-85
2022/04/06 05:41:28;;;;;;;16.88;15.07;;;;;;;9.57;64.30;100797.75;5011889;28;20064;-85
2022/04/06 05:43:54;;;;;;;20.83;15.88;;;;;;;9.41;64.24;100768.16;5011944;28;20136;-85
2022/04/06 05:46:21;;;;;;;16.95;15.20;;;;;;;9.69;63.07;100808.31;5013505;28;20081;-84
2022/04/06 05:48:48;;;;;;;13.48;11.95;;;;;;;9.77;62.52;100809.38;5018601;28;20054;-85
2022/04/06 05:51:14;;;;;;;13.65;12.23;;;;;;;9.47;61.97;100741.16;5015464;28;20141;-83
2022/04/06 05:53:41;;;;;;;11.75;10.75;;;;;;;9.78;61.36;100786.34;5012956;28;20434;-83
2022/04/06 05:56:07;;;;;;;14.85;12.48;;;;;;;9.69;60.45;100766.75;5044826;28;20049;-84
2022/04/06 05:58:34;;;;;;;14.32;11.68;;;;;;;9.97;59.81;100802.41;5009666;28;20478;-84
2022/04/06 06:01:01;;;;;;;11.98;10.73;;;;;;;9.18;59.73;100656.13;5008852;28;20053;-84
2022/04/06 06:03:28;;;;;;;12.52;11.23;;;;;;;9.46;59.48;100697.06;5008359;28;20057;-84
2022/04/06 06:05:55;;;;;;;13.10;11.05;;;;;;;10.05;60.30;100799.13;5009621;28;20081;-84
2022/04/06 06:08:22;;;;;;;11.95;10.75;;;;;;;10.18;59.70;100809.56;5009527;28;20049;-85
2022/04/06 06:10:48;;;;;;;14.88;10.90;;;;;;;9.93;59.37;100763.88;5010144;28;20069;-84
2022/04/06 06:13:15;;;;;;;13.15;10.32;;;;;;;10.25;58.46;100811.56;5008896;28;20088;-85
2022/04/06 06:15:42;;;;;;;14.35;10.55;;;;;;;9.71;59.10;100721.53;5027395;28;20674;-85
2022/04/06 06:18:09;;;;;;;14.15;11.43;;;;;;;10.02;58.95;100763.09;5027199;28;20049;-86
2022/04/06 06:20:35;;;;;;;17.83;12.02;;;;;;;10.06;58.79;100759.19;5008616;28;20604;-85
2022/04/06 06:23:02;;;;;;;17.73;14.10;;;;;;;10.31;58.17;100786.34;5008516;28;20081;-84
2022/04/06 06:25:30;;;;;;;18.63;15.02;;;;;;;10.35;57.92;100763.06;5041800;28;20049;-84
2022/04/06 06:27:57;;;;;;;17.20;15.25;;;;;;;10.40;57.97;100767.00;5009660;28;20499;-85
2022/04/06 06:30:27;;;;;;;19.35;14.95;;;;;;;9.51;57.62;100625.97;5008073;28;20057;-86
2022/04/06 06:32:55;;;;;;;21.77;16.88;;;;;;;10.19;57.45;100736.94;5027785;28;20042;-86
2022/04/06 06:35:23;;;;;;;23.00;19.77;;;;;;;9.96;57.69;100701.78;5025137;28;20050;-86
2022/04/06 06:37:53;;;;;;;26.50;19.55;;;;;;;9.27;58.07;100586.50;5009408;28;20045;-86
2022/04/06 06:40:22;;;;;;;27.80;21.35;;;;;;;10.06;57.61;100700.00;5008773;28;20571;-86
2022/04/06 06:42:49;;;;;;;21.92;19.42;;;;;;;9.31;57.64;100568.53;5040633;28;20057;-86
2022/04/06 06:45:16;;;;;;;22.50;20.10;;;;;;;10.83;57.70;100805.78;5040574;28;20384;-85
2022/04/06 06:47:43;;;;;;;23.92;21.23;;;;;;;9.73;57.12;100610.91;5008941;28;20077;-85
2022/04/06 06:50:14;;;;;;;26.60;21.23;;;;;;;10.52;56.75;100733.25;5040943;28;20103;-86
2022/04/06 06:52:41;;;;;;;23.83;20.45;;;;;;;10.71;57.04;100768.84;5008155;28;20057;-86
2022/04/06 06:55:13;;;;;;;22.17;19.95;;;;;;;10.69;56.84;100755.69;5009446;28;20423;-86
2022/04/06 06:57:40;;;;;;;22.75;19.55;;;;;;;10.02;56.75;100641.09;5042515;28;20352;-85
2022/04/06 07:00:09;;;;;;;29.30;22.98;;;;;;;11.01;56.65;100789.19;5027794;28;20053;-85
2022/04/06 07:02:36;;;;;;;26.35;23.30;;;;;;;11.09;57.27;100805.28;5027739;28;20483;-83
2022/04/06 07:05:03;;;;;;;22.10;19.73;;;;;;;10.54;56.87;100703.91;5027073;28;20046;-85
2022/04/06 07:07:30;;;;;;;21.13;18.55;;;;;;;10.86;56.18;100743.59;5009198;28;20049;-85
2022/04/06 07:09:57;;;;;;;21.55;19.25;;;;;;;11.20;56.07;100802.53;5008819;28;20061;-85
2022/04/06 07:12:24;;;;;;;22.05;19.70;;;;;;;10.91;56.32;100747.50;5009701;28;20141;-85
2022/04/06 07:14:54;;;;;;;24.70;21.10;;;;;;;11.13;56.46;100790.78;5010669;28;20045;-85
2022/04/06 07:17:20;;;;;;;23.58;21.17;;;;;;;11.10;56.67;100777.78;5028613;28;20127;-84
2022/04/06 07:19:47;;;;;;;28.85;22.17;;;;;;;11.24;56.43;100798.66;5010010;28;20374;-85
2022/04/06 07:22:13;;;;;;;25.52;21.85;;;;;;;10.74;56.54;100715.44;5009796;28;20421;-84
2022/04/06 07:24:40;;;;;;;21.67;19.58;;;;;;;10.63;55.82;100671.25;5026481;28;20585;-85
2022/04/06 07:27:12;;;;;;;26.92;24.10;;;;;;;10.72;55.86;100680.22;5008459;28;20542;-85
2022/04/06 07:29:38;;;;;;;32.97;26.85;;;;;;;11.52;56.26;100817.44;5008197;28;20357;-85
2022/04/06 07:32:05;;;;;;;29.73;26.52;;;;;;;11.52;56.65;100818.28;5025052;28;20053;-84
2022/04/06 07:34:32;;;;;;;33.25;28.98;;;;;;;11.39;56.51;100788.47;5009298;28;20148;-84
2022/04/06 07:36:59;;;;;;;33.05;28.38;;;;;;;11.58;56.75;100808.06;5026419;28;20041;-84
2022/04/06 07:39:28;;;;;;;31.75;27.90;;;;;;;11.54;56.41;100789.75;5009742;28;20415;-84
2022/04/06 07:41:58;;;;;;;36.83;29.27;;;;;;;11.73;56.83;100812.88;5028581;28;20084;-85
2022/04/06 07:44:25;;;;;;;33.65;30.08;;;;;;;11.37;56.57;100745.22;5030006;28;20057;-85
2022/04/06 07:46:52;;;;;;;32.83;29.10;;;;;;;10.96;56.54;100661.25;5012346;28;20104;-86
2022/04/06 07:49:19;;;;;;;31.77;28.50;;;;;;;11.10;56.49;100684.78;5008861;28;20099;-86
2022/04/06 07:51:47;;;;;;;34.58;30.83;;;;;;;11.83;56.64;100788.94;5044517;28;20049;-82
2022/04/06 07:54:14;;;;;;;33.72;30.13;;;;;;;11.85;56.16;100776.34;5012476;28;20447;-84
2022/04/06 07:57:01;;;;;;;38.95;30.38;;;;;;;12.14;56.25;100802.13;5029224;28;20148;-85
2022/04/06 07:59:28;;;;;;;32.30;28.98;;;;;;;12.19;56.73;100791.88;5025551;28;20061;-85
2022/04/06 08:01:54;;;;;;;33.92;30.30;;;;;;;12.07;55.26;100748.63;5044205;28;20092;-86
2022/04/06 08:04:21;;;;;;;33.53;29.55;;;;;;;11.65;55.80;100690.41;5041913;28;20079;-85
2022/04/06 08:06:53;;;;;;;33.42;29.75;;;;;;;11.79;56.47;100704.22;5029487;28;20084;-86
2022/04/06 08:09:20;;;;;;;32.22;28.85;;;;;;;12.24;56.76;100778.16;5028151;28;20252;-85
2022/04/06 08:11:47;;;;;;;34.25;30.45;;;;;;;12.34;56.02;100790.44;5013370;28;20136;-85
2022/04/06 08:14:13;;;;;;;32.85;29.35;;;;;;;11.88;55.52;100690.13;5014127;28;20049;-85
2022/04/06 08:16:40;;;;;;;31.65;28.35;;;;;;;11.73;55.27;100669.25;5007301;28;20073;-86
2022/04/06 08:19:10;;;;;;;31.88;28.05;;;;;;;12.58;55.58;100797.97;5005899;28;20497;-85
2022/04/06 08:21:37;;;;;;;37.10;32.20;;;;;;;11.91;55.57;100685.34;5006861;28;20496;-84
2022/04/06 08:24:04;;;;;;;38.40;31.73;;;;;;;11.40;55.90;100611.22;5005635;28;20144;-84
2022/04/06 08:26:31;;;;;;;35.05;31.15;;;;;;;11.75;55.27;100638.03;5005956;28;20050;-85
2022/04/06 08:28:58;;;;;;;37.78;30.98;;;;;;;12.86;55.33;100807.81;5007000;28;20061;-86
2022/04/06 08:31:26;;;;;;;38.35;29.65;;;;;;;12.32;55.28;100715.22;5005923;28;20136;-86
2022/04/06 08:33:53;;;;;;;33.92;30.42;;;;;;;12.29;54.91;100712.00;5038292;28;20065;-86
2022/04/06 08:36:20;;;;;;;33.53;30.02;;;;;;;12.63;55.64;100764.72;5005693;28;20562;-87
2022/04/06 08:38:48;;;;;;;33.15;29.77;;;;;;;12.80;55.43;100787.94;5007561;28;20081;-85
2022/04/06 08:41:17;;;;;;;34.13;29.60;;;;;;;11.80;54.89;100619.00;5007310;28;20053;-85
2022/04/06 08:43:45;;;;;;;34.30;30.60;;;;;;;12.98;54.42;100812.81;5016851;28;20081;-86
2022/04/06 08:46:12;;;;;;;36.65;32.15;;;;;;;12.52;55.30;100723.13;5018811;28;20058;-86
2022/04/06 08:48:39;;;;;;;37.35;33.42;;;;;;;13.11;55.86;100817.00;5050180;28;20057;-86
2022/04/06 08:51:12;;;;;;;38.35;34.35;;;;;;;12.15;56.08;100644.09;5011287;28;20046;-85
2022/04/06 08:53:45;;;;;;;35.85;31.60;;;;;;;12.70;56.07;100712.56;5040612;28;20054;-84
2022/04/06 08:56:13;;;;;;;36.75;32.90;;;;;;;13.48;56.10;100808.94;5008531;28;20049;-85
2022/04/06 08:58:41;;;;;;;40.30;32.13;;;;;;;12.63;55.88;100658.19;5025075;28;20091;-85
2022/04/06 09:01:08;;;;;;;36.05;32.15;;;;;;;13.63;55.89;100811.91;5009333;28;20081;-84
2022/04/06 09:03:36;;;;;;;36.75;32.80;;;;;;;13.71;56.12;100820.00;5041417;28;20113;-86
2022/04/06 09:06:10;;;;;;;35.63;31.92;;;;;;;13.82;55.88;100814.44;5008403;28;20046;-86
2022/04/06 09:08:40;;;;;;;37.72;30.40;;;;;;;13.44;54.56;100733.72;5008802;28;20085;-87
2022/04/06 09:11:15;;;;;;;39.38;31.83;;;;;;;13.27;54.90;100705.22;5008982;28;20053;-85
2022/04/06 09:13:43;;;;;;;34.47;30.85;;;;;;;13.94;54.57;100808.91;5010352;28;20045;-85
2022/04/06 09:16:12;;;;;;;34.55;31.05;;;;;;;13.46;54.68;100726.41;5015797;28;20119;-87
2022/04/06 09:18:43;;;;;;;32.25;28.83;;;;;;;13.96;55.43;100801.56;5045910;28;20466;-86
2022/04/06 09:21:11;;;;;;;37.63;31.13;;;;;;;13.95;56.48;100800.72;5045128;28;20045;-87
2022/04/06 09:23:38;;;;;;;31.30;28.17;;;;;;;13.73;56.60;100758.50;5045145;28;20077;-87
2022/04/06 09:26:07;;;;;;;32.75;29.38;;;;;;;14.02;56.64;100791.09;5012626;28;20526;-85
2022/04/06 09:28:41;;;;;;;32.00;28.55;;;;;;;14.21;56.52;100803.44;5048162;28;20539;-86
2022/04/06 09:31:16;;;;;;;36.15;28.17;;;;;;;14.24;56.54;100797.78;5030848;28;20060;-85
2022/04/06 09:34:00;;;;;;;28.55;25.85;;;;;;;13.74;57.40;100699.66;5039848;28;20064;-85
2022/04/06 09:36:29;;;;;;;28.63;25.67;;;;;;;13.30;56.76;100595.63;5044605;28;20045;-86
2022/04/06 09:42:59;;;;;;;27.38;24.48;;;;;;;14.85;56.35;100779.16;4934153;29;20093;-87
2022/04/06 09:48:14;;;;;;;26.90;24.30;;;;;;;14.59;56.35;100723.94;5030015;28;19960;-86
2022/04/06 09:50:56;;;;;;;25.95;23.42;;;;;;;13.46;56.61;100507.72;5011107;28;20050;-86
2022/04/06 09:53:30;;;;;;;24.63;22.23;;;;;;;15.07;56.09;100738.50;5028152;28;20057;-87
2022/04/06 09:55:57;;;;;;;24.38;21.83;;;;;;;15.38;54.89;100780.69;5043993;28;20064;-86
2022/04/06 09:58:24;;;;;;;24.15;21.60;;;;;;;14.78;55.53;100669.38;5010968;28;20529;-86
2022/04/06 10:00:52;;;;;;;20.30;18.13;;;;;;;15.22;55.97;100713.75;5043232;28;20479;-84
2022/04/06 10:03:20;;;;;;;20.35;18.40;;;;;;;15.11;55.98;100666.78;5008200;28;20057;-87
2022/04/06 10:05:50;;;;;;;18.00;16.10;;;;;;;15.37;56.70;100706.78;5008828;28;20100;-84
2022/04/06 10:08:20;;;;;;;17.15;15.50;;;;;;;15.50;56.73;100722.34;5043012;28;20470;-84
2022/04/06 10:10:47;;;;;;;16.92;15.13;;;;;;;15.57;57.08;100732.22;5026871;28;20049;-86
2022/04/06 10:13:14;;;;;;;15.25;13.75;;;;;;;15.67;56.59;100712.50;5010294;28;20045;-84
2022/04/06 10:16:01;;;;;;;14.85;13.43;;;;;;;15.65;56.61;100730.56;5013170;28;20042;-85
2022/04/06 10:18:32;;;;;;;12.77;11.48;;;;;;;15.48;55.36;100690.41;5010071;28;20049;-86
2022/04/06 10:21:03;;;;;;;10.90;9.80;;;;;;;15.54;54.76;100676.38;5043087;28;20049;-85
2022/04/06 10:23:52;;;;;;;11.75;10.27;;;;;;;15.94;54.90;100717.53;5010974;28;20138;-84
2022/04/06 10:26:40;;;;;;;10.48;9.02;;;;;;;15.74;54.92;100668.03;5043259;28;20495;-85
2022/04/06 10:29:08;;;;;;;10.73;8.27;;;;;;;16.22;52.35;100696.56;5010611;28;20452;-85
2022/04/06 10:31:35;;;;;;;12.90;7.53;;;;;;;16.27;52.63;100682.66;5010726;28;20083;-85
2022/04/06 10:34:25;;;;;;;10.70;7.60;;;;;;;16.48;52.34;100667.84;5010371;28;20286;-84
2022/04/06 10:37:12;;;;;;;9.68;6.72;;;;;;;17.06;50.79;100667.44;5009590;28;20053;-85
2022/04/06 10:39:51;;;;;;;6.30;5.32;;;;;;;17.46;46.14;100696.84;5010118;28;20056;-85
2022/04/06 10:42:42;;;;;;;7.55;6.45;;;;;;;17.29;46.26;100635.25;5011051;28;20487;-84
2022/04/06 10:45:30;;;;;;;8.05;6.38;;;;;;;17.83;45.60;100684.50;5011962;28;20049;-86
2022/04/06 10:48:21;;;;;;;8.45;6.38;;;;;;;17.13;45.05;100520.03;5019401;28;20076;-86
2022/04/06 10:50:49;;;;;;;5.95;5.20;;;;;;;17.92;44.34;100598.31;5047594;28;20240;-86
2022/04/06 10:53:21;;;;;;;6.47;5.88;;;;;;;18.50;43.90;100670.19;5013150;28;20049;-87
2022/04/06 10:56:07;;;;;;;9.70;5.45;;;;;;;17.89;42.84;100510.06;5012327;28;20495;-86
2022/04/06 10:58:56;;;;;;;6.60;5.65;;;;;;;19.03;42.62;100670.03;5010198;28;20076;-87
2022/04/06 11:01:29;;;;;;;8.63;5.32;;;;;;;18.26;42.84;100504.72;5022341;28;20053;-87
2022/04/06 11:03:59;;;;;;;6.60;5.50;;;;;;;18.40;43.03;100498.47;5007725;28;20062;-87
2022/04/06 11:13:14;;;;;;;6.35;5.60;;;;;;;20.18;40.77;100645.56;5006482;28;20694;-86
2022/04/06 11:15:52;;;;;;;8.43;5.68;;;;;;;19.39;40.38;100498.56;4991290;28;20049;-88
2022/04/06 11:18:47;;;;;;;6.45;5.07;;;;;;;20.45;36.58;100643.00;5014393;28;20049;-87
2022/04/06 11:21:15;;;;;;;6.10;5.03;;;;;;;19.93;38.37;100541.97;5030319;28;20049;-88
2022/04/06 11:23:42;;;;;;;6.15;5.65;;;;;;;20.10;38.51;100540.63;5029930;28;20041;-86
2022/04/06 11:26:09;;;;;;;8.90;5.60;;;;;;;20.11;38.41;100555.75;5029787;28;20055;-87
2022/04/06 11:28:36;;;;;;;7.20;5.90;;;;;;;19.97;39.61;100510.91;5046235;28;20055;-86
2022/04/06 11:31:04;;;;;;;9.38;6.20;;;;;;;19.69;40.54;100468.72;5029558;28;20107;-87
2022/04/06 11:33:38;;;;;;;9.70;7.45;;;;;;;20.49;41.16;100590.34;5028895;28;20098;-85
2022/04/06 11:40:41;;;;;;;;;;;;;;;;;;;;;
2022/04/06 11:43:21;;;;;;;8.45;7.32;;;;;;;20.48;41.89;100523.94;4987000;28;20082;-87
2022/04/06 11:45:57;;;;;;;7.95;7.25;;;;;;;20.97;40.44;100566.00;5029933;28;20268;-87